Flight Track Log - Related Links

Times and Time Zones

All times are in EDT time to prevent confusion due to time zone crossing. See the SWA2147 flight status page for this flight to view local times or setup timezone preferences in your user account.

Time Position Orientation Groundspeed Altitude Reporting Facility
EDT Latitude Longitude Course Direction KTS MPH feet Rate Location/Type
Sun 05:05:05 PM 37.7333 -122.2500 302° West 158 182 1,100  Level Northern TRACON
Sun 05:06:05 PM 37.7667 -122.3167 302° West 228 262 3,200 2,557 Climbing Northern TRACON
Sun 05:07:00 PM 37.7500 -122.3667 247° West 236 272 6,000 3,130 Climbing Northern TRACON
Sun 05:07:37 PM 37.7192 -122.3831 203° Southwest 223 257 8,000 2,970 Climbing Oakland Center
Sun 05:08:39 PM 37.6492 -122.3853 181° South 250 288 10,900 2,683 Climbing Oakland Center
Sun 05:09:40 PM 37.5933 -122.2975 129° Southeast 314 361 13,500 2,732 Climbing Oakland Center
Sun 05:10:42 PM 37.5294 -122.2086 132° Southeast 336 387 16,500 2,634 Climbing Oakland Center
Sun 05:11:43 PM 37.4631 -122.1136 131° Southeast 356 410 18,900 1,707 Climbing Oakland Center
Sun 05:12:45 PM 37.3786 -121.9925 131° Southeast 379 436 20,000 1,597 Climbing Oakland Center
Sun 05:13:47 PM 37.3053 -121.8906 132° Southeast 391 450 22,200 2,195 Climbing Oakland Center
Sun 05:14:48 PM 37.2322 -121.7831 130° Southeast 402 463 24,500 2,293 Climbing Oakland Center
Sun 05:15:50 PM 37.1550 -121.6717 131° Southeast 417 480 26,900 2,032 Climbing Oakland Center
Sun 05:16:52 PM 37.0753 -121.5608 132° Southeast 426 490 28,700 1,659 Climbing Oakland Center
Sun 05:17:53 PM 36.9919 -121.4506 133° Southeast 433 498 30,300 1,561 Climbing Oakland Center
Sun 05:18:55 PM 36.9089 -121.3319 131° Southeast 448 516 31,900 1,742 Climbing Oakland Center
Sun 05:19:57 PM 36.8131 -121.2003 132° Southeast 456 525 33,900 1,707 Climbing Oakland Center
Sun 05:20:58 PM 36.7278 -121.0828 132° Southeast 457 526 35,400 1,415 Climbing Oakland Center
Sun 05:22:00 PM 36.6436 -120.9642 131° Southeast 457 526 36,800 1,258 Climbing Oakland Center
Sun 05:23:02 PM 36.5581 -120.8458 132° Southeast 460 529 38,000 1,073 Climbing Oakland Center
Sun 05:24:03 PM 36.4742 -120.7269 131° Southeast 459 528 39,000 488 Climbing Oakland Center
Sun 05:25:05 PM 36.3711 -120.5875 133° Southeast 458 527 39,000  Level Oakland Center
Sun 05:26:07 PM 36.2858 -120.4703 132° Southeast 457 526 39,000  Level Oakland Center
Sun 05:27:08 PM 36.1994 -120.3550 133° Southeast 456 525 39,000  Level Oakland Center
Sun 05:28:10 PM 36.1131 -120.2378 132° Southeast 459 528 39,000  Level Oakland Center
Sun 05:29:12 PM 36.0269 -120.1194 132° Southeast 461 531 39,000  Level Oakland Center
Sun 05:30:13 PM 35.9406 -120.0031 132° Southeast 460 529 39,000  Level Oakland Center
Sun 05:31:15 PM 35.8439 -119.8994 139° Southeast 465 535 39,000  Level Oakland Center
Sun 05:32:08 PM 35.7408 -119.8083 144° Southeast 455 524 39,000  Level Los Center
Sun 05:33:10 PM 35.6533 -119.6886 132° Southeast 465 535 39,000  Level Los Center
Sun 05:34:12 PM 35.5667 -119.5692 132° Southeast 467 537 39,000  Level Los Center
Sun 05:35:14 PM 35.4794 -119.4483 132° Southeast 469 540 39,000  Level Los Center
Sun 05:36:16 PM 35.3931 -119.3281 131° Southeast 469 540 39,000  Level Los Center
Sun 05:37:18 PM 35.3347 -119.1833 116° Southeast 476 548 39,000  Level Los Center
Sun 05:38:21 PM 35.2689 -119.0042 114° Southeast 480 552 39,000  Level Los Center
Sun 05:39:23 PM 35.2156 -118.8561 114° Southeast 477 549 39,000  Level Los Center
Sun 05:40:25 PM 35.1608 -118.7094 114° Southeast 476 548 39,000  Level Los Center
Sun 05:41:27 PM 35.1036 -118.5625 115° Southeast 477 549 39,000  Level Los Center
Sun 05:42:29 PM 35.0475 -118.4144 115° Southeast 476 548 39,000  Level Los Center
Sun 05:43:31 PM 34.9928 -118.2678 114° Southeast 476 548 39,000  Level Los Center
Sun 05:44:33 PM 34.9258 -118.0925 115° Southeast 478 550 39,000  Level Los Center
Sun 05:45:35 PM 34.8697 -117.9469 115° Southeast 479 551 39,000  Level Los Center
Sun 05:46:37 PM 34.8136 -117.8017 115° Southeast 480 552 39,000  Level Los Center
Sun 05:47:39 PM 34.7586 -117.6550 114° Southeast 482 555 39,000  Level Los Center
Sun 05:48:41 PM 34.7003 -117.5075 116° Southeast 488 562 39,000  Level Los Center
Sun 05:49:44 PM 34.6325 -117.3311 115° Southeast 486 559 39,000  Level Los Center
Sun 05:50:46 PM 34.5753 -117.1856 115° Southeast 482 555 39,000  Level Los Center
Sun 05:51:48 PM 34.5189 -117.0386 115° Southeast 481 554 39,000  Level Los Center
Sun 05:52:50 PM 34.4606 -116.8939 116° Southeast 481 554 39,000  Level Los Center
Sun 05:53:52 PM 34.4042 -116.7483 115° Southeast 479 551 39,000  Level Los Center
Sun 05:54:54 PM 34.3336 -116.5747 116° Southeast 482 555 39,000  Level Los Center
Sun 05:55:56 PM 34.2797 -116.4272 114° Southeast 485 558 39,000  Level Los Center
Sun 05:56:58 PM 34.2208 -116.2833 116° Southeast 479 551 39,000  Level Los Center
Sun 05:58:00 PM 34.1633 -116.1383 116° Southeast 479 551 39,000  Level Los Center
Sun 05:59:02 PM 34.1022 -115.9917 117° Southeast 477 549 39,000  Level Los Center
Sun 06:00:04 PM 34.0447 -115.8464 115° Southeast 479 551 39,000  Level Los Center
Sun 06:01:07 PM 33.9847 -115.7003 116° Southeast 484 557 39,000  Level Los Center
Sun 06:02:09 PM 33.9128 -115.5267 116° Southeast 483 556 39,000  Level Los Center
Sun 06:03:11 PM 33.8528 -115.3808 116° Southeast 486 559 39,000  Level Los Center
Sun 06:04:13 PM 33.7925 -115.2364 117° Southeast 485 558 39,000  Level Los Center
Sun 06:05:15 PM 33.7328 -115.0919 116° Southeast 484 557 39,000 -435 Level Los Center
Sun 06:06:17 PM 33.6733 -114.9478 116° Southeast 482 555 38,100 -1,694 Descending Los Center
Sun 06:07:19 PM 33.6133 -114.8058 117° Southeast 479 551 35,500 -2,661 Descending Los Center
Sun 06:08:21 PM 33.5667 -114.6247 107° East 478 550 32,600 -2,419 Descending Los Center
Sun 06:09:23 PM 33.5383 -114.4750 103° East 463 533 30,500 -2,032 Descending Los Center
Sun 06:10:25 PM 33.5092 -114.3289 103° East 453 521 28,400 -1,887 Descending Los Center
Sun 06:11:27 PM 33.4817 -114.1914 103° East 430 495 26,600 -1,534 Descending Los Center
Sun 06:12:38 PM 33.4531 -114.0247 102° East 419 482 25,000 -722 Descending Albuquerque Center
Sun 06:13:40 PM 33.4253 -113.8919 104° East 413 475 25,000  Level Albuquerque Center
Sun 06:14:41 PM 33.3983 -113.7564 103° East 417 480 25,000 -621 Level Albuquerque Center
Sun 06:15:36 PM 33.3719 -113.6292 104° East 416 479 23,800 -1,744 Descending Los Center
Sun 06:16:38 PM 33.3447 -113.4964 104° East 400 460 21,600 -2,081 Descending Los Center
Sun 06:17:40 PM 33.3181 -113.3697 104° East 392 451 19,500 -2,031 Descending Los Center
Sun 06:18:48 PM 33.2878 -113.2203 104° East 384 442 17,200 -2,031 Descending Albuquerque Center
Sun 06:19:50 PM 33.2731 -113.1033 99° East 363 418 15,100 -1,645 Descending Albuquerque Center
Sun 06:20:52 PM 33.2764 -112.9878 88° East 350 403 13,800 -1,463 Descending Albuquerque Center
Sun 06:21:53 PM 33.2789 -112.8786 88° East 335 386 12,100 -1,415 Descending Albuquerque Center
Sun 06:22:55 PM 33.2958 -112.7792 78° East 312 359 10,900 -1,016 Descending Albuquerque Center
Sun 06:23:57 PM 33.3286 -112.6908 66° East 293 337 10,000 -774 Descending Albuquerque Center
Sun 06:24:59 PM 33.3589 -112.6133 65° Northeast 265 305 9,300 -878 Descending Albuquerque Center
Sun 06:26:00 PM 33.3900 -112.5306 66° East 257 296 8,200 -927 Descending Albuquerque Center
Sun 06:27:02 PM 33.4164 -112.4592 66° East 238 274 7,400 -1,016 Descending Albuquerque Center
Sun 06:28:04 PM 33.4417 -112.3728 71° East 232 267 6,100 -1,016 Descending Albuquerque Center
Sun 06:29:06 PM 33.4403 -112.2967 91° East 230 265 5,300 -976 Descending Albuquerque Center
Sun 06:30:07 PM 33.4408 -112.2203 89° East 230 265 4,100 -1,073 Descending Albuquerque Center
Sun 06:31:09 PM 33.4406 -112.1517 90° East 213 245 3,100 -950 Descending Albuquerque Center
Sun 06:31:48 PM 33.4333 -112.1167 104° East 164 189 2,500 -788 Descending Phoenix TRACON
Sun 06:32:48 PM 33.4333 -112.0667 90° East 144 166 1,800 -700 Descending Phoenix TRACON

Login

Don't have an account? Register now (free) for customized features, flight alerts, and more!